createdAt,value
2022-08-20T00:03:59.260Z,1.30
2022-08-20T00:14:03.129Z,1.63
2022-08-20T00:24:04.542Z,1.60
2022-08-20T00:34:05.848Z,1.30
2022-08-20T00:44:07.283Z,1.30
2022-08-20T00:54:08.614Z,1.10
2022-08-20T01:04:11.128Z,1.00
2022-08-20T01:14:21.852Z,1.38
2022-08-20T01:24:23.181Z,1.35
2022-08-20T01:34:24.536Z,1.40
2022-08-20T01:44:25.930Z,1.55
2022-08-20T01:54:27.281Z,1.30
2022-08-20T02:04:28.649Z,1.58
2022-08-20T02:14:29.967Z,1.90
2022-08-20T02:24:31.413Z,1.55
2022-08-20T02:34:34.809Z,2.15
2022-08-20T02:44:36.191Z,2.25
2022-08-20T02:54:37.550Z,1.92
2022-08-20T03:04:38.864Z,2.08
2022-08-20T03:14:40.182Z,2.15
2022-08-20T03:24:41.562Z,2.13
2022-08-20T03:34:42.901Z,2.22
2022-08-20T03:44:44.242Z,2.45
2022-08-20T03:54:46.093Z,2.60
2022-08-20T04:04:47.465Z,2.67
2022-08-20T04:14:48.709Z,2.50
2022-08-20T04:24:50.974Z,2.40
2022-08-20T04:34:52.345Z,2.78
2022-08-20T04:44:53.617Z,3.03
2022-08-20T04:54:58.267Z,2.72
2022-08-20T05:04:59.607Z,3.20
2022-08-20T05:15:00.835Z,2.80
2022-08-20T05:25:02.594Z,3.70
2022-08-20T05:35:03.920Z,3.60
2022-08-20T05:45:05.272Z,3.63
2022-08-20T05:55:16.086Z,3.10
2022-08-20T06:05:17.472Z,3.33
2022-08-20T06:15:18.902Z,3.10
2022-08-20T06:25:20.384Z,2.65
2022-08-20T06:35:21.800Z,2.55
2022-08-20T06:45:24.521Z,2.38
2022-08-20T06:55:25.923Z,2.00
2022-08-20T07:05:27.247Z,2.10
2022-08-20T07:15:28.595Z,1.55
2022-08-20T07:25:29.982Z,1.73
2022-08-20T07:35:31.353Z,1.92
2022-08-20T07:45:32.783Z,2.05
2022-08-20T07:55:34.114Z,1.90
2022-08-20T08:05:35.461Z,1.60
2022-08-20T08:15:40.790Z,1.60
2022-08-20T08:25:46.012Z,1.55
2022-08-20T08:35:48.016Z,1.02
2022-08-20T08:45:49.350Z,0.93
2022-08-20T08:55:50.805Z,1.10
2022-08-20T09:05:52.272Z,1.13
2022-08-20T09:15:53.611Z,0.80
2022-08-20T09:25:54.953Z,0.75
2022-08-20T09:35:56.264Z,0.90
2022-08-20T09:45:57.686Z,0.60
2022-08-20T09:56:00.224Z,0.65
2022-08-20T10:06:01.564Z,0.75
2022-08-20T10:16:03.743Z,0.80
2022-08-20T10:26:05.095Z,0.70
2022-08-20T10:36:06.409Z,0.70
2022-08-20T10:46:07.789Z,0.52
2022-08-20T10:56:12.681Z,0.82
2022-08-20T11:06:16.393Z,0.45
2022-08-20T11:16:17.679Z,0.63
2022-08-20T11:26:18.944Z,0.47
2022-08-20T11:36:20.710Z,0.70
2022-08-20T11:46:26.545Z,0.40
2022-08-20T11:56:29.720Z,0.50
2022-08-20T12:06:31.474Z,0.60
2022-08-20T12:16:32.803Z,0.60
2022-08-20T12:26:34.207Z,0.45
2022-08-20T12:36:35.550Z,0.60
2022-08-20T12:46:36.915Z,0.43
2022-08-20T12:56:38.256Z,0.70
2022-08-20T13:06:39.587Z,0.90
2022-08-20T13:16:40.924Z,0.60
2022-08-20T13:26:42.252Z,0.90
2022-08-20T13:36:43.661Z,1.02
2022-08-20T13:46:45.140Z,1.35
2022-08-20T13:56:46.471Z,1.30
2022-08-20T14:06:47.961Z,1.27
2022-08-20T14:16:49.307Z,1.17
2022-08-20T14:26:50.723Z,1.10
2022-08-20T14:36:52.070Z,1.38
2022-08-20T14:46:53.379Z,1.35
2022-08-20T14:56:55.085Z,1.23
2022-08-20T15:06:56.412Z,1.05
2022-08-20T15:17:02.029Z,1.10
2022-08-20T15:27:03.398Z,1.13
2022-08-20T15:37:04.745Z,1.90
2022-08-20T15:47:06.004Z,1.33
2022-08-20T15:57:07.318Z,1.23
2022-08-20T16:07:08.663Z,1.40
2022-08-20T16:17:10.068Z,1.30
2022-08-20T16:27:12.603Z,1.05
2022-08-20T16:37:13.944Z,1.67
2022-08-20T16:47:15.886Z,1.10
2022-08-20T16:57:18.502Z,1.35
2022-08-20T17:07:19.835Z,1.27
2022-08-20T17:17:22.403Z,1.30
2022-08-20T17:27:23.748Z,1.10
2022-08-20T17:37:25.937Z,0.90
2022-08-20T17:47:27.332Z,1.40
2022-08-20T17:57:28.676Z,1.58
2022-08-20T18:07:30.488Z,1.50
2022-08-20T18:17:31.815Z,1.50
2022-08-20T18:27:33.094Z,1.63
2022-08-20T18:37:34.398Z,1.25
2022-08-20T18:47:35.674Z,1.58
2022-08-20T18:57:40.871Z,1.60
2022-08-20T19:07:48.573Z,1.40
2022-08-20T19:17:50.373Z,1.65
2022-08-20T19:27:51.863Z,1.48
2022-08-20T19:37:53.268Z,1.48
2022-08-20T19:47:54.627Z,1.83
2022-08-20T19:57:57.036Z,1.27
2022-08-20T20:07:58.423Z,1.50
2022-08-20T20:17:59.964Z,1.83
2022-08-20T20:28:01.251Z,1.70
2022-08-20T20:38:02.650Z,1.77
2022-08-20T20:48:03.988Z,2.00
2022-08-20T20:58:05.388Z,1.88
2022-08-20T21:08:06.711Z,1.75
2022-08-20T21:18:08.211Z,1.95
2022-08-20T21:28:09.552Z,1.90
2022-08-20T21:38:11.220Z,1.92
2022-08-20T21:58:17.091Z,2.13
2022-08-20T22:08:18.436Z,2.17
2022-08-20T22:18:19.820Z,2.00
2022-08-20T22:28:21.194Z,2.10
2022-08-20T22:38:22.543Z,2.20
2022-08-20T22:48:23.952Z,2.00
2022-08-20T22:58:31.432Z,2.05
2022-08-20T23:08:32.875Z,2.05
2022-08-20T23:18:34.219Z,2.13
2022-08-20T23:28:35.560Z,2.22
2022-08-20T23:38:37.011Z,2.22
2022-08-20T23:48:38.425Z,2.40
2022-08-20T23:58:40.012Z,2.20
